createdAt,value
2022-08-20T00:00:23.866Z,3.53
2022-08-20T00:02:53.627Z,5.88
2022-08-20T00:05:24.650Z,4.13
2022-08-20T00:07:52.714Z,3.25
2022-08-20T00:10:21.161Z,5.53
2022-08-20T00:12:51.777Z,5.65
2022-08-20T00:15:22.266Z,5.70
2022-08-20T00:17:50.596Z,5.50
2022-08-20T00:20:21.283Z,4.38
2022-08-20T00:22:49.052Z,5.00
2022-08-20T00:25:18.392Z,8.00
2022-08-20T00:27:46.414Z,4.97
2022-08-20T00:30:16.325Z,6.90
2022-08-20T00:32:45.775Z,6.00
2022-08-20T00:35:15.250Z,4.05
2022-08-20T00:37:43.002Z,5.43
2022-08-20T00:40:22.544Z,3.75
2022-08-20T00:42:53.334Z,6.30
2022-08-20T00:45:22.555Z,4.45
2022-08-20T00:47:51.145Z,5.60
2022-08-20T00:50:24.369Z,3.83
2022-08-20T00:52:53.899Z,4.03
2022-08-20T00:55:27.494Z,6.22
2022-08-20T00:58:02.988Z,4.93
2022-08-20T01:00:35.737Z,5.57
2022-08-20T01:03:03.819Z,5.45
2022-08-20T01:05:31.520Z,4.45
2022-08-20T01:07:59.597Z,4.50
2022-08-20T01:10:30.467Z,5.90
2022-08-20T01:12:59.976Z,4.80
2022-08-20T01:15:30.994Z,5.18
2022-08-20T01:18:03.225Z,5.45
2022-08-20T01:20:34.783Z,4.35
2022-08-20T01:23:31.104Z,6.22
2022-08-20T01:26:05.935Z,5.60
2022-08-20T01:28:41.602Z,4.18
2022-08-20T01:31:11.955Z,3.60
2022-08-20T01:33:40.240Z,5.22
2022-08-20T01:36:11.442Z,5.00
2022-08-20T01:38:41.377Z,4.82
2022-08-20T01:41:35.070Z,4.78
2022-08-20T01:44:03.164Z,4.35
2022-08-20T01:46:36.805Z,3.97
2022-08-20T01:49:16.444Z,3.15
2022-08-20T01:51:51.875Z,4.65
2022-08-20T01:54:19.802Z,5.53
2022-08-20T01:56:58.586Z,6.75
2022-08-20T01:59:26.494Z,6.43
2022-08-20T02:01:55.004Z,5.53
2022-08-20T02:04:23.155Z,4.80
2022-08-20T02:06:56.195Z,7.28
2022-08-20T02:09:26.839Z,5.78
2022-08-20T02:11:57.529Z,7.35
2022-08-20T02:14:25.414Z,8.70
2022-08-20T02:16:55.010Z,10.38
2022-08-20T02:19:26.693Z,7.88
2022-08-20T02:21:58.091Z,6.93
2022-08-20T02:24:25.978Z,7.72
2022-08-20T02:26:56.037Z,8.20
2022-08-20T02:29:26.119Z,10.48
2022-08-20T02:32:24.226Z,8.10
2022-08-20T02:34:42.194Z,6.07
2022-08-20T02:37:10.719Z,7.68
2022-08-20T02:39:38.441Z,8.55
2022-08-20T02:42:09.325Z,8.70
2022-08-20T02:44:37.055Z,7.38
2022-08-20T02:47:05.399Z,8.80
2022-08-20T02:49:34.947Z,11.45
2022-08-20T02:52:02.637Z,12.07
2022-08-20T02:54:30.344Z,8.57
2022-08-20T02:56:58.022Z,8.07
2022-08-20T02:59:27.058Z,8.77
2022-08-20T03:01:59.334Z,9.43
2022-08-20T03:04:28.439Z,9.93
2022-08-20T03:06:56.289Z,6.72
2022-08-20T03:09:24.059Z,9.25
2022-08-20T03:11:52.249Z,9.55
2022-08-20T03:14:19.982Z,7.13
2022-08-20T03:16:49.009Z,10.00
2022-08-20T03:19:16.890Z,11.52
2022-08-20T03:21:45.056Z,13.43
2022-08-20T03:24:12.980Z,11.38
2022-08-20T03:26:40.858Z,11.65
2022-08-20T03:29:08.570Z,13.13
2022-08-20T03:31:36.311Z,13.30
2022-08-20T03:34:05.610Z,12.98
2022-08-20T03:36:33.499Z,16.13
2022-08-20T03:39:04.334Z,15.43
2022-08-20T03:41:32.542Z,12.55
2022-08-20T03:44:00.250Z,10.25
2022-08-20T03:46:28.011Z,11.32
2022-08-20T03:48:59.954Z,11.75
2022-08-20T03:51:30.588Z,12.52
2022-08-20T03:53:58.939Z,13.07
2022-08-20T03:56:27.077Z,13.13
2022-08-20T03:58:55.502Z,11.57
2022-08-20T04:01:45.855Z,9.88
2022-08-20T04:04:12.539Z,9.73
2022-08-20T04:06:42.772Z,9.07
2022-08-20T04:09:11.829Z,10.30
2022-08-20T04:11:40.287Z,10.68
2022-08-20T04:14:08.141Z,11.75
2022-08-20T04:16:37.777Z,12.13
2022-08-20T04:19:06.247Z,12.75
2022-08-20T04:21:35.266Z,14.50
2022-08-20T04:24:06.469Z,13.77
2022-08-20T04:26:36.286Z,12.98
2022-08-20T04:29:04.394Z,11.38
2022-08-20T04:31:34.114Z,10.13
2022-08-20T04:34:02.964Z,9.90
2022-08-20T04:36:30.882Z,10.00
2022-08-20T04:38:58.574Z,13.15
2022-08-20T04:41:26.662Z,12.10
2022-08-20T04:43:56.251Z,14.85
2022-08-20T04:46:25.950Z,14.43
2022-08-20T04:48:54.299Z,10.50
2022-08-20T04:51:22.757Z,11.50
2022-08-20T04:53:53.743Z,7.88
2022-08-20T04:56:23.595Z,11.90
2022-08-20T04:58:54.355Z,10.50
2022-08-20T05:01:23.766Z,12.23
2022-08-20T05:03:54.634Z,11.43
2022-08-20T05:06:25.021Z,11.80
2022-08-20T05:08:53.373Z,10.80
2022-08-20T05:11:34.652Z,13.85
2022-08-20T05:14:07.974Z,12.90
2022-08-20T05:16:38.841Z,13.50
2022-08-20T05:19:08.590Z,10.95
2022-08-20T05:21:36.886Z,17.13
2022-08-20T05:24:05.365Z,9.43
2022-08-20T05:26:34.188Z,18.42
2022-08-20T05:29:02.678Z,15.68
2022-08-20T05:31:33.600Z,13.95
2022-08-20T05:34:02.442Z,15.23
2022-08-20T05:36:30.777Z,14.40
2022-08-20T05:38:58.475Z,15.40
2022-08-20T05:41:29.228Z,12.55
2022-08-20T05:43:57.948Z,16.58
2022-08-20T05:46:25.709Z,15.07
2022-08-20T05:48:54.758Z,14.80
2022-08-20T05:51:22.445Z,14.77
2022-08-20T05:53:50.329Z,15.85
2022-08-20T05:56:18.038Z,15.68
2022-08-20T05:58:45.748Z,14.52
2022-08-20T06:01:13.486Z,17.42
2022-08-20T06:03:58.754Z,15.63
2022-08-20T06:06:44.755Z,15.63
2022-08-20T06:09:15.305Z,17.35
2022-08-20T06:11:43.048Z,17.77
2022-08-20T06:14:10.747Z,18.70
2022-08-20T06:16:38.726Z,17.92
2022-08-20T06:19:07.033Z,21.98
2022-08-20T06:21:41.062Z,16.85
2022-08-20T06:24:09.254Z,23.55
2022-08-20T06:26:37.874Z,18.77
2022-08-20T06:29:07.113Z,15.38
2022-08-20T06:31:39.806Z,19.83
2022-08-20T06:34:08.312Z,16.95
2022-08-20T06:36:36.027Z,20.25
2022-08-20T06:39:05.324Z,18.17
2022-08-20T06:41:36.297Z,20.52
2022-08-20T06:44:06.514Z,19.63
2022-08-20T06:46:34.507Z,19.80
2022-08-20T06:49:03.493Z,19.90
2022-08-20T06:51:31.477Z,22.00
2022-08-20T06:53:59.540Z,20.85
2022-08-20T06:56:28.619Z,16.65
2022-08-20T06:58:56.279Z,18.75
2022-08-20T07:01:24.346Z,23.05
2022-08-20T07:03:55.520Z,19.50
2022-08-20T07:06:25.457Z,23.50
2022-08-20T07:08:53.739Z,19.17
2022-08-20T07:11:27.249Z,17.95
2022-08-20T07:13:58.230Z,20.77
2022-08-20T07:16:26.365Z,22.83
2022-08-20T07:18:54.471Z,24.05
2022-08-20T07:21:22.181Z,21.88
2022-08-20T07:23:50.035Z,17.95
2022-08-20T07:26:18.163Z,22.73
2022-08-20T07:28:46.293Z,18.23
2022-08-20T07:31:34.875Z,22.88
2022-08-20T07:34:02.966Z,24.58
2022-08-20T07:36:31.142Z,22.02
2022-08-20T07:38:58.882Z,23.02
2022-08-20T07:41:26.678Z,24.17
2022-08-20T07:43:54.506Z,17.23
2022-08-20T07:46:23.538Z,23.98
2022-08-20T07:48:58.919Z,21.42
2022-08-20T07:51:26.759Z,19.05
2022-08-20T07:53:54.754Z,26.73
2022-08-20T07:56:24.719Z,21.60
2022-08-20T07:58:55.428Z,23.80
2022-08-20T08:01:29.495Z,20.80
2022-08-20T08:03:57.850Z,21.23
2022-08-20T08:06:30.467Z,21.23
2022-08-20T08:09:03.378Z,21.50
2022-08-20T08:11:33.732Z,21.60
2022-08-20T08:14:01.788Z,20.15
2022-08-20T08:16:32.468Z,23.42
2022-08-20T08:19:01.249Z,22.25
2022-08-20T08:21:30.002Z,24.70
2022-08-20T08:23:58.251Z,24.63
2022-08-20T08:26:28.651Z,23.95
2022-08-20T08:28:56.728Z,22.05
2022-08-20T08:31:25.630Z,23.98
2022-08-20T08:33:54.798Z,24.63
2022-08-20T08:36:22.469Z,26.17
2022-08-20T08:38:50.240Z,24.23
2022-08-20T08:41:20.678Z,25.83
2022-08-20T08:43:50.692Z,20.05
2022-08-20T08:46:22.490Z,18.95
2022-08-20T08:48:53.583Z,22.50
2022-08-20T08:51:31.078Z,21.23
2022-08-20T08:54:03.441Z,21.38
2022-08-20T08:56:35.623Z,21.00
2022-08-20T08:59:07.733Z,20.08
2022-08-20T09:01:56.622Z,18.00
2022-08-20T09:04:30.403Z,17.63
2022-08-20T09:07:00.454Z,22.13
2022-08-20T09:09:32.529Z,26.15
2022-08-20T09:12:05.507Z,16.92
2022-08-20T09:14:33.291Z,20.13
2022-08-20T09:17:01.043Z,17.23
2022-08-20T09:19:28.761Z,14.77
2022-08-20T09:21:56.511Z,17.83
2022-08-20T09:24:25.913Z,16.10
2022-08-20T09:26:53.625Z,18.27
2022-08-20T09:29:21.309Z,18.00
2022-08-20T09:31:49.014Z,13.95
2022-08-20T09:34:16.721Z,14.30
2022-08-20T09:36:44.374Z,13.25
2022-08-20T09:39:12.554Z,14.27
2022-08-20T09:41:41.711Z,15.77
2022-08-20T09:44:09.407Z,12.07
2022-08-20T09:46:37.439Z,16.10
2022-08-20T09:49:05.096Z,11.10
2022-08-20T09:51:34.851Z,12.00
2022-08-20T09:54:06.616Z,15.10
2022-08-20T09:56:35.732Z,13.55
2022-08-20T09:59:04.874Z,10.48
2022-08-20T10:01:33.210Z,12.68
2022-08-20T10:04:00.944Z,15.40
2022-08-20T10:06:28.641Z,10.02
2022-08-20T10:08:56.364Z,10.20
2022-08-20T10:11:24.135Z,10.98
2022-08-20T10:13:52.711Z,12.02
2022-08-20T10:16:21.716Z,8.93
2022-08-20T10:18:49.460Z,11.13
2022-08-20T10:21:17.430Z,8.85
2022-08-20T10:23:45.335Z,6.82
2022-08-20T10:26:15.068Z,10.10
2022-08-20T10:28:42.712Z,10.95
2022-08-20T10:31:11.825Z,10.93
2022-08-20T10:33:42.088Z,12.02
2022-08-20T10:36:11.406Z,9.73
2022-08-20T10:38:39.154Z,10.02
2022-08-20T10:41:07.156Z,11.48
2022-08-20T10:43:35.172Z,7.65
2022-08-20T10:46:03.340Z,6.35
2022-08-20T10:48:31.143Z,9.55
2022-08-20T10:51:00.194Z,12.02
2022-08-20T10:53:27.973Z,7.95
2022-08-20T10:55:56.310Z,7.88
2022-08-20T10:58:24.183Z,10.07
2022-08-20T11:00:52.151Z,7.05
2022-08-20T11:03:20.225Z,11.52
2022-08-20T11:05:48.622Z,6.22
2022-08-20T11:08:33.310Z,9.70
2022-08-20T11:11:01.685Z,6.88
2022-08-20T11:13:29.367Z,10.27
2022-08-20T11:15:57.049Z,7.53
2022-08-20T11:18:24.743Z,13.38
2022-08-20T11:20:52.417Z,8.13
2022-08-20T11:23:21.647Z,8.68
2022-08-20T11:25:50.187Z,9.05
2022-08-20T11:28:30.932Z,7.72
2022-08-20T11:31:00.313Z,9.02
2022-08-20T11:33:28.123Z,8.05
2022-08-20T11:35:55.791Z,9.52
2022-08-20T11:38:24.813Z,10.68
2022-08-20T11:40:52.566Z,7.22
2022-08-20T11:43:20.307Z,7.72
2022-08-20T11:45:51.523Z,10.93
2022-08-20T11:48:19.495Z,8.70
2022-08-20T11:50:47.524Z,10.15
2022-08-20T11:53:15.457Z,8.45
2022-08-20T11:55:44.995Z,13.48
2022-08-20T11:58:13.544Z,7.30
2022-08-20T12:00:41.444Z,10.70
2022-08-20T12:03:10.435Z,9.13
2022-08-20T12:05:40.257Z,9.32
2022-08-20T12:08:08.395Z,8.32
2022-08-20T12:10:36.146Z,10.02
2022-08-20T12:13:05.774Z,10.13
2022-08-20T12:15:33.625Z,10.25
2022-08-20T12:18:01.813Z,10.57
2022-08-20T12:20:29.479Z,11.05
2022-08-20T12:22:58.910Z,8.40
2022-08-20T12:25:26.966Z,8.50
2022-08-20T12:27:54.784Z,10.82
2022-08-20T12:30:25.247Z,9.48
2022-08-20T12:32:52.977Z,8.98
2022-08-20T12:35:20.929Z,9.00
2022-08-20T12:37:48.901Z,7.85
2022-08-20T12:40:24.470Z,10.48
2022-08-20T12:43:00.345Z,13.93
2022-08-20T12:45:29.538Z,7.30
2022-08-20T12:48:02.539Z,9.45
2022-08-20T12:50:31.802Z,8.05
2022-08-20T12:52:59.866Z,12.98
2022-08-20T12:55:28.012Z,12.32
2022-08-20T12:57:59.431Z,7.78
2022-08-20T13:00:30.285Z,6.40
2022-08-20T13:03:01.574Z,8.43
2022-08-20T13:05:30.058Z,7.80
2022-08-20T13:07:58.573Z,6.88
2022-08-20T13:10:28.186Z,9.18
2022-08-20T13:12:56.275Z,8.38
2022-08-20T13:15:25.339Z,8.05
2022-08-20T13:17:55.317Z,8.80
2022-08-20T13:20:25.642Z,10.35
2022-08-20T13:22:59.418Z,5.80
2022-08-20T13:25:27.167Z,8.43
2022-08-20T13:27:58.202Z,6.70
2022-08-20T13:30:26.352Z,5.55
2022-08-20T13:32:55.692Z,6.03
2022-08-20T13:35:23.707Z,11.10
2022-08-20T13:37:51.814Z,7.13
2022-08-20T13:40:19.926Z,7.13
2022-08-20T13:42:47.835Z,10.57
2022-08-20T13:45:15.661Z,6.20
2022-08-20T13:47:43.679Z,6.25
2022-08-20T13:50:16.502Z,8.02
2022-08-20T13:52:44.602Z,7.93
2022-08-20T13:55:17.004Z,5.95
2022-08-20T13:57:46.063Z,7.32
2022-08-20T14:00:17.761Z,8.20
2022-08-20T14:02:45.970Z,8.73
2022-08-20T14:05:17.277Z,5.55
2022-08-20T14:07:47.191Z,11.25
2022-08-20T14:10:19.025Z,6.93
2022-08-20T14:12:48.171Z,9.10
2022-08-20T14:15:16.464Z,10.95
2022-08-20T14:17:51.298Z,10.02
2022-08-20T14:20:24.354Z,11.07
2022-08-20T14:22:52.047Z,10.48
2022-08-20T14:25:22.383Z,11.27
2022-08-20T14:27:50.661Z,10.48
2022-08-20T14:30:20.909Z,10.85
2022-08-20T14:32:48.696Z,8.10
2022-08-20T14:35:16.683Z,9.15
2022-08-20T14:37:49.451Z,7.47
2022-08-20T14:40:19.104Z,10.70
2022-08-20T14:42:51.495Z,6.75
2022-08-20T14:45:21.067Z,9.27
2022-08-20T14:47:53.792Z,9.45
2022-08-20T14:50:25.054Z,8.48
2022-08-20T14:52:54.904Z,9.77
2022-08-20T14:55:24.602Z,8.93
2022-08-20T14:57:52.287Z,10.52
2022-08-20T15:00:23.490Z,11.23
2022-08-20T15:02:51.289Z,11.55
2022-08-20T15:05:19.076Z,7.60
2022-08-20T15:07:51.763Z,10.38
2022-08-20T15:10:25.253Z,8.93
2022-08-20T15:12:53.164Z,8.93
2022-08-20T15:15:21.580Z,10.95
2022-08-20T15:17:51.516Z,5.70
2022-08-20T15:20:21.614Z,10.73
2022-08-20T15:22:50.960Z,7.57
2022-08-20T15:25:22.027Z,5.35
2022-08-20T15:27:52.098Z,9.13
2022-08-20T15:30:22.119Z,5.88
2022-08-20T15:32:54.643Z,7.22
2022-08-20T15:35:23.566Z,7.25
2022-08-20T15:37:54.684Z,8.07
2022-08-20T15:40:28.287Z,6.97
2022-08-20T15:42:57.852Z,10.43
2022-08-20T15:45:26.416Z,8.85
2022-08-20T15:47:56.810Z,11.80
2022-08-20T15:50:39.281Z,6.45
2022-08-20T15:53:11.786Z,6.53
2022-08-20T15:55:44.035Z,7.03
2022-08-20T15:58:19.273Z,7.10
2022-08-20T16:00:54.801Z,7.53
2022-08-20T16:03:40.343Z,8.18
2022-08-20T16:06:15.211Z,6.05
2022-08-20T16:09:04.120Z,6.03
2022-08-20T16:11:45.459Z,11.35
2022-08-20T16:14:18.214Z,7.30
2022-08-20T16:16:49.659Z,9.65
2022-08-20T16:19:23.039Z,7.75
2022-08-20T16:21:51.596Z,7.03
2022-08-20T16:24:20.314Z,7.35
2022-08-20T16:27:02.935Z,5.15
2022-08-20T16:29:45.765Z,10.45
2022-08-20T16:32:26.752Z,6.95
2022-08-20T16:35:00.250Z,6.75
2022-08-20T16:37:37.143Z,5.82
2022-08-20T16:40:19.466Z,7.05
2022-08-20T16:42:51.136Z,6.50
2022-08-20T16:45:25.447Z,8.65
2022-08-20T16:47:55.486Z,5.60
2022-08-20T16:50:27.021Z,7.40
2022-08-20T16:52:54.930Z,5.38
2022-08-20T16:55:24.841Z,6.15
2022-08-20T16:57:53.399Z,6.95
2022-08-20T17:00:25.544Z,5.93
2022-08-20T17:02:56.441Z,4.78
2022-08-20T17:05:26.903Z,6.60
2022-08-20T17:08:01.575Z,7.65
2022-08-20T17:10:31.661Z,9.27
2022-08-20T17:13:03.661Z,6.07
2022-08-20T17:15:36.094Z,8.73
2022-08-20T17:18:21.257Z,4.03
2022-08-20T17:20:48.946Z,3.75
2022-08-20T17:23:18.411Z,3.40
2022-08-20T17:25:54.990Z,5.18
2022-08-20T17:28:24.082Z,6.95
2022-08-20T17:30:55.661Z,7.32
2022-08-20T17:33:29.055Z,6.50
2022-08-20T17:36:00.657Z,7.07
2022-08-20T17:38:34.551Z,4.63
2022-08-20T17:41:08.159Z,4.72
2022-08-20T17:43:36.067Z,7.78
2022-08-20T17:46:17.321Z,5.22
2022-08-20T17:48:46.923Z,7.10
2022-08-20T17:51:17.749Z,6.18
2022-08-20T17:53:52.009Z,5.38
2022-08-20T17:56:23.402Z,4.93
2022-08-20T17:58:56.529Z,3.83
2022-08-20T18:01:27.330Z,6.20
2022-08-20T18:03:55.125Z,4.60
2022-08-20T18:06:31.643Z,4.75
2022-08-20T18:09:12.021Z,5.75
2022-08-20T18:11:45.607Z,3.15
2022-08-20T18:14:32.831Z,3.80
2022-08-20T18:17:15.211Z,5.95
2022-08-20T18:20:19.371Z,4.10
2022-08-20T18:22:54.293Z,5.32
2022-08-20T18:25:36.591Z,5.50
2022-08-20T18:28:10.118Z,4.53
2022-08-20T18:30:48.836Z,6.05
2022-08-20T18:33:27.324Z,5.47
2022-08-20T18:36:09.173Z,3.90
2022-08-20T18:38:41.860Z,3.58
2022-08-20T18:41:12.813Z,5.25
2022-08-20T18:43:42.014Z,4.63
2022-08-20T18:46:12.671Z,3.67
2022-08-20T18:48:51.756Z,5.57
2022-08-20T18:51:21.975Z,3.92
2022-08-20T18:53:51.103Z,4.35
2022-08-20T18:56:31.490Z,5.05
2022-08-20T18:59:02.224Z,4.63
2022-08-20T19:01:32.847Z,5.88
2022-08-20T19:04:01.933Z,3.63
2022-08-20T19:06:37.497Z,3.90
2022-08-20T19:09:12.370Z,4.25
2022-08-20T19:12:05.898Z,2.72
2022-08-20T19:14:49.621Z,6.25
2022-08-20T19:17:24.234Z,2.95
2022-08-20T19:20:01.556Z,7.13
2022-08-20T19:22:30.082Z,4.95
2022-08-20T19:24:59.277Z,5.80
2022-08-20T19:27:29.237Z,3.55
2022-08-20T19:29:57.850Z,3.70
2022-08-20T19:32:28.237Z,4.25
2022-08-20T19:34:58.131Z,6.40
2022-08-20T19:37:38.600Z,3.80
2022-08-20T19:40:21.942Z,3.88
2022-08-20T19:42:52.787Z,4.65
2022-08-20T19:45:27.735Z,6.20
2022-08-20T19:48:07.975Z,4.00
2022-08-20T19:50:42.574Z,7.05
2022-08-20T19:53:29.912Z,3.20
2022-08-20T19:56:01.557Z,3.95
2022-08-20T19:58:31.142Z,8.18
2022-08-20T20:00:59.445Z,3.33
2022-08-20T20:03:30.195Z,7.10
2022-08-20T20:06:02.602Z,4.15
2022-08-20T20:08:39.991Z,4.05
2022-08-20T20:11:10.234Z,3.75
2022-08-20T20:13:39.697Z,4.68
2022-08-20T20:16:08.427Z,5.65
2022-08-20T20:18:40.330Z,3.65
2022-08-20T20:21:14.578Z,3.05
2022-08-20T20:23:53.110Z,5.60
2022-08-20T20:26:21.123Z,4.97
2022-08-20T20:28:51.272Z,4.45
2022-08-20T20:31:24.845Z,3.70
2022-08-20T20:33:55.614Z,4.63
2022-08-20T20:36:35.168Z,5.63
2022-08-20T20:39:11.243Z,4.63
2022-08-20T20:41:53.288Z,4.15
2022-08-20T20:44:26.565Z,3.78
2022-08-20T20:46:57.285Z,3.72
2022-08-20T20:49:27.663Z,4.57
2022-08-20T20:52:01.493Z,4.10
2022-08-20T20:54:41.324Z,5.10
2022-08-20T20:57:10.699Z,3.33
2022-08-20T20:59:38.537Z,3.35
2022-08-20T21:02:06.379Z,3.67
2022-08-20T21:04:34.527Z,3.67
2022-08-20T21:07:07.750Z,5.03
2022-08-20T21:09:38.386Z,3.67
2022-08-20T21:12:07.433Z,3.78
2022-08-20T21:14:35.573Z,5.07
2022-08-20T21:17:06.748Z,4.82
2022-08-20T21:19:35.118Z,3.28
2022-08-20T21:22:12.777Z,4.60
2022-08-20T21:24:41.870Z,3.25
2022-08-20T21:27:10.261Z,4.68
2022-08-20T21:29:40.610Z,2.83
2022-08-20T21:32:08.899Z,5.50
2022-08-20T21:34:40.401Z,3.65
2022-08-20T21:37:08.122Z,4.32
2022-08-20T21:39:35.925Z,3.30
2022-08-20T21:42:16.080Z,5.03
2022-08-20T21:44:57.581Z,3.20
2022-08-20T21:47:25.761Z,5.32
2022-08-20T21:49:53.509Z,3.63
2022-08-20T21:52:21.471Z,3.75
2022-08-20T21:54:49.198Z,4.35
2022-08-20T21:57:21.220Z,7.97
2022-08-20T21:59:50.194Z,5.18
2022-08-20T22:02:18.922Z,3.22
2022-08-20T22:04:46.998Z,5.28
2022-08-20T22:07:17.090Z,3.78
2022-08-20T22:09:45.003Z,4.13
2022-08-20T22:12:18.060Z,4.57
2022-08-20T22:14:48.121Z,5.43
2022-08-20T22:17:16.536Z,4.68
2022-08-20T22:19:44.791Z,4.85
2022-08-20T22:22:14.554Z,4.43
2022-08-20T22:24:43.046Z,7.47
2022-08-20T22:27:10.720Z,6.15
2022-08-20T22:29:38.529Z,7.05
2022-08-20T22:32:07.875Z,4.32
2022-08-20T22:34:36.878Z,4.78
2022-08-20T22:37:05.111Z,7.97
2022-08-20T22:39:32.878Z,5.75
2022-08-20T22:42:00.705Z,4.20
2022-08-20T22:44:28.452Z,4.93
2022-08-20T22:46:59.866Z,4.63
2022-08-20T22:49:31.841Z,5.30
2022-08-20T22:51:59.754Z,3.67
2022-08-20T22:54:27.849Z,5.05
2022-08-20T22:56:56.189Z,5.25
2022-08-20T22:59:24.454Z,4.63
2022-08-20T23:01:53.214Z,6.18
2022-08-20T23:04:33.370Z,7.68
2022-08-20T23:07:02.347Z,4.80
2022-08-20T23:09:30.677Z,5.72
2022-08-20T23:11:59.049Z,3.97
2022-08-20T23:14:27.449Z,5.18
2022-08-20T23:17:01.241Z,5.38
2022-08-20T23:19:28.915Z,5.63
2022-08-20T23:21:58.003Z,5.47
2022-08-20T23:24:26.532Z,5.00
2022-08-20T23:26:54.303Z,4.50
2022-08-20T23:29:25.727Z,4.85
2022-08-20T23:31:54.567Z,4.50
2022-08-20T23:34:22.301Z,4.18
2022-08-20T23:36:52.270Z,6.20
2022-08-20T23:39:21.484Z,6.18
2022-08-20T23:41:49.169Z,4.95
2022-08-20T23:44:25.441Z,4.95
2022-08-20T23:46:55.517Z,5.28
2022-08-20T23:49:23.235Z,6.10
2022-08-20T23:51:50.921Z,5.43
2022-08-20T23:54:18.657Z,7.13
2022-08-20T23:56:47.724Z,4.90
2022-08-20T23:59:15.489Z,6.80
